New Orleans, Louisiana
Traffic Map
Current Weather Conditions
New Orleans, Louisiana
Clear
Clear
79°
Feels Like: 80°
Wind Chill: 79° Ceiling: Unl
Heat Index: 80° Visibility: 10mi
Dew Point: 55° Wind: 6mph
Humidity: 44% Direction: 290° (WNW)
Pressure: 30.06in Gusts: 0mph
Raw Report DataKNEW 301953Z 29005KT 10SM CLR 26/13 A3006 RMK AO2 SLP171 T02610128
Traffic Incident Summary
Active as of:
Severity:
Category:
InformationThere was an issue retrieving the traffic information for this location. Please try a different location or try again shortly.
Advertisements
Track Severe Weather on mobile